SAS31A ESGG-ENBR
Flight info
| Callsign | SAS31A |
|---|---|
| Flight time | N/A |
| Altitude | 38000 |
| Route | DETNA3J DETNA DCT ARTOR DCT TITUX DCT PESUR PESUR3N |
| Aircraft | A320/M-SDE2E3FGHIJ1RWXY/L |
Departure
| Time | 2026-05-07 16:49 |
|---|---|
| Airport | Göteborg Landvetter Airport (ESGG) |
Arrival
| Time | N/A |
|---|---|
| Airport | Bergen Airport, Flesland (ENBR) |
| Time | Latitude | Longitude | Altitude | Speed | Heading |
|---|---|---|---|---|---|
| 2026-05-07 16:21 | 57.67128 | 12.29621 | 512 ft | 0 kts | 116° |
| 2026-05-07 16:41 | 57.67129 | 12.29617 | 512 ft | 3 kts | 111° |
| 2026-05-07 16:41 | 57.67132 | 12.29582 | 512 ft | 3 kts | 80° |
| 2026-05-07 16:41 | 57.67129 | 12.29550 | 512 ft | 3 kts | 80° |
| 2026-05-07 16:42 | 57.67124 | 12.29518 | 511 ft | 2 kts | 70° |
| 2026-05-07 16:42 | 57.67117 | 12.29488 | 511 ft | 2 kts | 52° |
| 2026-05-07 16:42 | 57.67109 | 12.29472 | 511 ft | 0 kts | 26° |
| 2026-05-07 16:44 | 57.67180 | 12.29535 | 512 ft | 20 kts | 17° |
| 2026-05-07 16:45 | 57.67241 | 12.29417 | 512 ft | 10 kts | 284° |
| 2026-05-07 16:45 | 57.67304 | 12.29427 | 513 ft | 17 kts | 21° |
| 2026-05-07 16:45 | 57.67423 | 12.29425 | 514 ft | 17 kts | 302° |
| 2026-05-07 16:45 | 57.67458 | 12.29269 | 514 ft | 0 kts | 277° |
| 2026-05-07 16:46 | 57.67458 | 12.29268 | 514 ft | 1 kts | 277° |
| 2026-05-07 16:47 | 57.67449 | 12.29127 | 512 ft | 18 kts | 250° |
| 2026-05-07 16:47 | 57.67379 | 12.28975 | 512 ft | 0 kts | 208° |
| 2026-05-07 16:48 | 57.67352 | 12.28949 | 512 ft | 28 kts | 208° |
| 2026-05-07 16:48 | 57.66870 | 12.28507 | 507 ft | 122 kts | 206° |
| 2026-05-07 16:49 | 57.65899 | 12.27611 | 699 ft | 175 kts | 207° |
| 2026-05-07 16:49 | 57.64725 | 12.26680 | 1633 ft | 194 kts | 206° |
| 2026-05-07 16:49 | 57.63399 | 12.25630 | 2561 ft | 220 kts | 205° |
| 2026-05-07 16:49 | 57.61966 | 12.24468 | 3601 ft | 228 kts | 204° |
| 2026-05-07 16:50 | 57.60492 | 12.23184 | 4565 ft | 242 kts | 207° |
| 2026-05-07 16:50 | 57.58987 | 12.21669 | 5473 ft | 255 kts | 207° |
| 2026-05-07 16:50 | 57.57524 | 12.19755 | 6600 ft | 261 kts | 225° |
| 2026-05-07 16:50 | 57.56585 | 12.16820 | 7658 ft | 270 kts | 251° |
| 2026-05-07 16:51 | 57.56204 | 12.13372 | 8778 ft | 273 kts | 258° |
| 2026-05-07 16:51 | 57.55859 | 12.09857 | 9927 ft | 277 kts | 258° |
| 2026-05-07 16:51 | 57.55501 | 12.06283 | 10768 ft | 289 kts | 258° |
| 2026-05-07 16:51 | 57.55108 | 12.02458 | 11271 ft | 312 kts | 258° |
| 2026-05-07 16:52 | 57.54681 | 11.98377 | 11857 ft | 327 kts | 259° |
| 2026-05-07 16:52 | 57.54261 | 11.94188 | 12826 ft | 331 kts | 262° |
| 2026-05-07 16:52 | 57.54105 | 11.89895 | 13818 ft | 335 kts | 270° |
| 2026-05-07 16:52 | 57.54281 | 11.85546 | 14673 ft | 339 kts | 276° |
| 2026-05-07 16:53 | 57.54559 | 11.81176 | 15560 ft | 341 kts | 276° |
| 2026-05-07 16:53 | 57.54829 | 11.76760 | 16432 ft | 344 kts | 276° |
| 2026-05-07 16:53 | 57.55090 | 11.72376 | 17287 ft | 347 kts | 275° |
| 2026-05-07 16:53 | 57.55353 | 11.67888 | 18135 ft | 350 kts | 275° |
| 2026-05-07 16:54 | 57.55616 | 11.63363 | 18898 ft | 353 kts | 275° |
| 2026-05-07 16:54 | 57.55880 | 11.58803 | 19667 ft | 355 kts | 275° |
| 2026-05-07 16:54 | 57.56144 | 11.54221 | 20415 ft | 357 kts | 275° |
| 2026-05-07 16:54 | 57.56409 | 11.49598 | 21144 ft | 360 kts | 274° |
| 2026-05-07 16:55 | 57.56673 | 11.44953 | 21875 ft | 362 kts | 274° |
| 2026-05-07 16:55 | 57.56937 | 11.40263 | 22620 ft | 364 kts | 274° |
| 2026-05-07 16:55 | 57.57201 | 11.35556 | 23316 ft | 367 kts | 274° |
| 2026-05-07 16:55 | 57.57466 | 11.30796 | 23873 ft | 371 kts | 274° |
| 2026-05-07 16:56 | 57.57732 | 11.26011 | 24062 ft | 372 kts | 273° |
| 2026-05-07 16:56 | 57.57996 | 11.21212 | 24128 ft | 372 kts | 273° |
| 2026-05-07 16:56 | 57.58815 | 11.11747 | 24132 ft | 377 kts | 286° |
| 2026-05-07 16:57 | 57.59993 | 11.07349 | 24131 ft | 384 kts | 300° |
| 2026-05-07 16:57 | 57.61758 | 11.03563 | 24131 ft | 392 kts | 313° |
| 2026-05-07 16:57 | 57.63994 | 11.00576 | 24131 ft | 398 kts | 322° |
| 2026-05-07 16:57 | 57.66329 | 10.97783 | 24129 ft | 398 kts | 322° |
| 2026-05-07 16:58 | 57.68662 | 10.94986 | 24131 ft | 398 kts | 322° |
| 2026-05-07 16:58 | 57.70990 | 10.92182 | 24128 ft | 398 kts | 322° |
| 2026-05-07 16:58 | 57.73317 | 10.89368 | 24131 ft | 398 kts | 321° |
| 2026-05-07 16:58 | 57.75638 | 10.86551 | 24128 ft | 398 kts | 321° |
| 2026-05-07 16:59 | 57.77961 | 10.83728 | 24130 ft | 397 kts | 321° |
| 2026-05-07 16:59 | 57.80282 | 10.80901 | 24130 ft | 398 kts | 321° |
| 2026-05-07 16:59 | 57.82609 | 10.78063 | 24130 ft | 398 kts | 321° |
| 2026-05-07 16:59 | 57.84903 | 10.75260 | 24133 ft | 397 kts | 321° |
| 2026-05-07 17:00 | 57.87224 | 10.72421 | 24132 ft | 398 kts | 321° |
| 2026-05-07 17:00 | 57.89539 | 10.69583 | 24134 ft | 398 kts | 321° |
| 2026-05-07 17:00 | 57.91857 | 10.66739 | 24131 ft | 397 kts | 321° |
| 2026-05-07 17:00 | 57.94170 | 10.63895 | 24132 ft | 397 kts | 321° |
| 2026-05-07 17:01 | 57.96484 | 10.61046 | 24131 ft | 397 kts | 321° |
| 2026-05-07 17:01 | 57.98796 | 10.58194 | 24131 ft | 397 kts | 321° |
| 2026-05-07 17:01 | 58.01107 | 10.55340 | 24132 ft | 397 kts | 321° |
| 2026-05-07 17:01 | 58.03419 | 10.52479 | 24135 ft | 397 kts | 321° |
| 2026-05-07 17:02 | 58.05728 | 10.49619 | 24131 ft | 397 kts | 320° |
| 2026-05-07 17:02 | 58.07257 | 10.47721 | 24132 ft | 397 kts | 320° |
| 2026-05-07 17:02 | 58.09567 | 10.44852 | 24135 ft | 396 kts | 320° |
| 2026-05-07 17:02 | 58.11873 | 10.41983 | 24137 ft | 396 kts | 320° |
| 2026-05-07 17:03 | 58.14919 | 10.38186 | 24129 ft | 396 kts | 320° |
| 2026-05-07 17:03 | 58.16471 | 10.36248 | 24129 ft | 396 kts | 320° |
| 2026-05-07 17:03 | 58.18769 | 10.33376 | 24131 ft | 395 kts | 320° |
| 2026-05-07 17:03 | 58.21063 | 10.30503 | 24129 ft | 395 kts | 320° |
| 2026-05-07 17:04 | 58.23357 | 10.27627 | 24130 ft | 395 kts | 320° |
| 2026-05-07 17:04 | 58.25619 | 10.24783 | 24151 ft | 394 kts | 320° |
| 2026-05-07 17:04 | 58.27906 | 10.21904 | 24132 ft | 394 kts | 320° |
| 2026-05-07 17:04 | 58.30190 | 10.19026 | 24131 ft | 394 kts | 319° |
| 2026-05-07 17:05 | 58.32472 | 10.16144 | 24130 ft | 393 kts | 319° |
| 2026-05-07 17:05 | 58.34643 | 10.13025 | 24131 ft | 388 kts | 313° |
| 2026-05-07 17:05 | 58.36706 | 10.09709 | 24130 ft | 388 kts | 313° |
| 2026-05-07 17:05 | 58.38783 | 10.06419 | 24128 ft | 388 kts | 314° |
| 2026-05-07 17:06 | 58.40865 | 10.03129 | 24127 ft | 388 kts | 314° |
| 2026-05-07 17:06 | 58.42941 | 9.99841 | 24129 ft | 388 kts | 314° |
| 2026-05-07 17:06 | 58.45012 | 9.96549 | 24129 ft | 387 kts | 313° |
| 2026-05-07 17:06 | 58.47080 | 9.93253 | 24130 ft | 387 kts | 313° |
| 2026-05-07 17:07 | 58.49146 | 9.89951 | 24127 ft | 387 kts | 313° |
| 2026-05-07 17:07 | 58.51212 | 9.86644 | 24128 ft | 387 kts | 313° |
| 2026-05-07 17:07 | 58.53272 | 9.83338 | 24131 ft | 386 kts | 313° |
| 2026-05-07 17:07 | 58.55333 | 9.80030 | 24128 ft | 386 kts | 313° |
| 2026-05-07 17:08 | 58.57385 | 9.76728 | 24127 ft | 386 kts | 313° |
| 2026-05-07 17:08 | 58.59446 | 9.73407 | 24126 ft | 386 kts | 313° |
| 2026-05-07 17:08 | 58.61502 | 9.70087 | 24123 ft | 386 kts | 313° |
| 2026-05-07 17:08 | 58.63527 | 9.66813 | 24125 ft | 385 kts | 313° |
| 2026-05-07 17:09 | 58.65584 | 9.63482 | 24124 ft | 386 kts | 313° |
| 2026-05-07 17:09 | 58.67634 | 9.60158 | 24123 ft | 385 kts | 313° |
| 2026-05-07 17:09 | 58.69681 | 9.56832 | 24125 ft | 385 kts | 313° |
| 2026-05-07 17:09 | 58.71728 | 9.53502 | 24128 ft | 385 kts | 313° |
| 2026-05-07 17:10 | 58.73776 | 9.50165 | 24127 ft | 385 kts | 313° |
| 2026-05-07 17:10 | 58.75820 | 9.46831 | 24121 ft | 385 kts | 313° |
| 2026-05-07 17:10 | 58.77861 | 9.43494 | 24123 ft | 385 kts | 313° |
| 2026-05-07 17:10 | 58.79905 | 9.40148 | 24120 ft | 385 kts | 313° |
| 2026-05-07 17:11 | 58.81941 | 9.36810 | 24119 ft | 385 kts | 313° |
| 2026-05-07 17:11 | 58.83910 | 9.33332 | 24119 ft | 383 kts | 310° |
| 2026-05-07 17:11 | 58.85835 | 9.29788 | 24117 ft | 382 kts | 310° |
| 2026-05-07 17:11 | 58.87758 | 9.26230 | 24119 ft | 382 kts | 310° |
| 2026-05-07 17:12 | 58.89655 | 9.22722 | 24114 ft | 382 kts | 310° |
| 2026-05-07 17:12 | 58.91577 | 9.19166 | 24108 ft | 382 kts | 310° |
| 2026-05-07 17:12 | 58.93498 | 9.15607 | 24113 ft | 382 kts | 310° |
| 2026-05-07 17:12 | 58.95415 | 9.12051 | 24107 ft | 382 kts | 310° |
| 2026-05-07 17:13 | 58.97327 | 9.08498 | 24107 ft | 381 kts | 310° |
| 2026-05-07 17:13 | 58.99242 | 9.04932 | 24106 ft | 381 kts | 310° |
| 2026-05-07 17:13 | 59.01156 | 9.01363 | 24104 ft | 381 kts | 310° |
| 2026-05-07 17:13 | 59.03064 | 8.97798 | 24100 ft | 381 kts | 310° |
| 2026-05-07 17:14 | 59.04971 | 8.94231 | 24100 ft | 380 kts | 310° |
| 2026-05-07 17:14 | 59.06872 | 8.90667 | 24097 ft | 380 kts | 310° |
| 2026-05-07 17:14 | 59.08203 | 8.88169 | 24096 ft | 379 kts | 310° |
| 2026-05-07 17:14 | 59.10102 | 8.84599 | 24090 ft | 379 kts | 310° |
| 2026-05-07 17:15 | 59.11999 | 8.81028 | 24085 ft | 378 kts | 310° |
| 2026-05-07 17:15 | 59.13885 | 8.77471 | 24088 ft | 378 kts | 310° |
| 2026-05-07 17:15 | 59.15772 | 8.73909 | 24083 ft | 378 kts | 310° |
| 2026-05-07 17:15 | 59.17655 | 8.70346 | 24081 ft | 377 kts | 310° |
| 2026-05-07 17:16 | 59.19513 | 8.66824 | 24078 ft | 377 kts | 309° |
| 2026-05-07 17:16 | 59.21388 | 8.63264 | 24078 ft | 377 kts | 310° |
| 2026-05-07 17:16 | 59.23267 | 8.59693 | 24078 ft | 376 kts | 309° |
| 2026-05-07 17:16 | 59.25138 | 8.56133 | 24075 ft | 374 kts | 309° |
| 2026-05-07 17:17 | 59.27003 | 8.52576 | 24075 ft | 376 kts | 309° |
| 2026-05-07 17:17 | 59.28872 | 8.49007 | 24060 ft | 373 kts | 309° |
| 2026-05-07 17:17 | 59.30729 | 8.45454 | 24075 ft | 374 kts | 309° |
| 2026-05-07 17:17 | 59.32587 | 8.41890 | 24074 ft | 374 kts | 309° |
| 2026-05-07 17:18 | 59.34449 | 8.38317 | 24068 ft | 374 kts | 309° |
| 2026-05-07 17:18 | 59.36303 | 8.34752 | 24066 ft | 373 kts | 309° |
| 2026-05-07 17:18 | 59.38156 | 8.31184 | 24071 ft | 373 kts | 309° |
| 2026-05-07 17:18 | 59.40000 | 8.27630 | 24075 ft | 371 kts | 309° |
| 2026-05-07 17:19 | 59.41825 | 8.24102 | 24075 ft | 373 kts | 309° |
| 2026-05-07 17:19 | 59.43667 | 8.20536 | 24074 ft | 371 kts | 309° |
| 2026-05-07 17:19 | 59.45510 | 8.16967 | 24078 ft | 371 kts | 309° |
| 2026-05-07 17:19 | 59.47346 | 8.13402 | 24080 ft | 371 kts | 309° |
| 2026-05-07 17:20 | 59.49179 | 8.09836 | 24081 ft | 370 kts | 309° |
| 2026-05-07 17:20 | 59.51008 | 8.06276 | 24084 ft | 371 kts | 309° |
| 2026-05-07 17:20 | 59.52815 | 8.02751 | 24085 ft | 370 kts | 309° |
| 2026-05-07 17:20 | 59.54667 | 7.99133 | 24080 ft | 369 kts | 309° |
| 2026-05-07 17:21 | 59.56489 | 7.95569 | 24096 ft | 368 kts | 309° |
| 2026-05-07 17:21 | 59.58307 | 7.92005 | 24096 ft | 368 kts | 309° |
| 2026-05-07 17:21 | 59.60126 | 7.88431 | 24084 ft | 369 kts | 309° |
| 2026-05-07 17:21 | 59.61921 | 7.84900 | 24103 ft | 368 kts | 309° |
| 2026-05-07 17:22 | 59.63736 | 7.81325 | 24105 ft | 367 kts | 309° |
| 2026-05-07 17:22 | 59.65545 | 7.77755 | 24098 ft | 367 kts | 309° |
| 2026-05-07 17:22 | 59.67350 | 7.74190 | 24111 ft | 366 kts | 309° |
| 2026-05-07 17:22 | 59.69133 | 7.70661 | 24109 ft | 366 kts | 309° |
| 2026-05-07 17:23 | 59.70932 | 7.67096 | 24118 ft | 366 kts | 308° |
| 2026-05-07 17:23 | 59.72730 | 7.63526 | 24114 ft | 365 kts | 309° |
| 2026-05-07 17:23 | 59.74524 | 7.59957 | 24121 ft | 366 kts | 308° |
| 2026-05-07 17:23 | 59.76320 | 7.56381 | 24120 ft | 365 kts | 308° |
| 2026-05-07 17:24 | 59.78091 | 7.52849 | 24128 ft | 365 kts | 308° |
| 2026-05-07 17:24 | 59.79900 | 7.49234 | 24129 ft | 365 kts | 308° |
| 2026-05-07 17:24 | 59.81668 | 7.45697 | 24123 ft | 364 kts | 308° |
| 2026-05-07 17:24 | 59.83450 | 7.42124 | 24133 ft | 364 kts | 308° |
| 2026-05-07 17:25 | 59.85231 | 7.38546 | 24130 ft | 363 kts | 308° |
| 2026-05-07 17:25 | 59.87004 | 7.34979 | 24132 ft | 363 kts | 308° |
| 2026-05-07 17:25 | 59.88786 | 7.31388 | 24131 ft | 363 kts | 308° |
| 2026-05-07 17:25 | 59.90557 | 7.27817 | 24136 ft | 363 kts | 308° |
| 2026-05-07 17:26 | 59.92272 | 7.24353 | 24135 ft | 363 kts | 308° |
| 2026-05-07 17:26 | 59.94045 | 7.20763 | 24130 ft | 363 kts | 308° |
| 2026-05-07 17:26 | 59.95809 | 7.17188 | 23997 ft | 361 kts | 308° |
| 2026-05-07 17:26 | 59.97574 | 7.13604 | 23340 ft | 363 kts | 308° |
| 2026-05-07 17:27 | 59.99359 | 7.09964 | 22198 ft | 371 kts | 308° |
| 2026-05-07 17:27 | 60.01179 | 7.06246 | 21234 ft | 374 kts | 309° |
| 2026-05-07 17:27 | 60.02999 | 7.02538 | 20491 ft | 372 kts | 309° |
| 2026-05-07 17:27 | 60.04800 | 6.98866 | 19762 ft | 368 kts | 309° |
| 2026-05-07 17:28 | 60.06568 | 6.95251 | 19069 ft | 365 kts | 309° |
| 2026-05-07 17:28 | 60.08363 | 6.91570 | 18319 ft | 363 kts | 309° |
| 2026-05-07 17:28 | 60.10093 | 6.88015 | 17562 ft | 359 kts | 309° |
| 2026-05-07 17:28 | 60.11834 | 6.84430 | 16769 ft | 357 kts | 309° |
| 2026-05-07 17:29 | 60.13556 | 6.80877 | 16043 ft | 354 kts | 309° |
| 2026-05-07 17:29 | 60.15267 | 6.77340 | 15280 ft | 352 kts | 310° |
| 2026-05-07 17:29 | 60.16970 | 6.73810 | 14557 ft | 351 kts | 310° |
| 2026-05-07 17:29 | 60.18666 | 6.70289 | 13849 ft | 350 kts | 310° |
| 2026-05-07 17:30 | 60.20357 | 6.66782 | 12828 ft | 349 kts | 310° |
| 2026-05-07 17:30 | 60.21907 | 6.62994 | 11871 ft | 351 kts | 296° |
| 2026-05-07 17:30 | 60.22631 | 6.58535 | 11608 ft | 331 kts | 274° |
| 2026-05-07 17:30 | 60.22716 | 6.54029 | 11432 ft | 315 kts | 269° |
| 2026-05-07 17:31 | 60.22765 | 6.49828 | 11289 ft | 299 kts | 269° |
| 2026-05-07 17:31 | 60.22811 | 6.45914 | 11172 ft | 285 kts | 269° |
| 2026-05-07 17:31 | 60.22865 | 6.42009 | 11041 ft | 272 kts | 269° |
| 2026-05-07 17:31 | 60.22919 | 6.38298 | 10893 ft | 260 kts | 269° |
| 2026-05-07 17:32 | 60.23068 | 6.34635 | 10394 ft | 269 kts | 282° |
| 2026-05-07 17:32 | 60.24015 | 6.31078 | 10189 ft | 310 kts | 308° |
| 2026-05-07 17:32 | 60.25757 | 6.28392 | 10145 ft | 322 kts | 332° |
| 2026-05-07 17:32 | 60.27166 | 6.27460 | 10108 ft | 321 kts | 346° |
| 2026-05-07 17:33 | 60.29662 | 6.25040 | 10238 ft | 284 kts | 306° |
| 2026-05-07 17:33 | 60.30388 | 6.21528 | 10345 ft | 273 kts | 270° |
| 2026-05-07 17:33 | 60.30012 | 6.17906 | 10601 ft | 268 kts | 243° |
| 2026-05-07 17:33 | 60.28962 | 6.14822 | 10976 ft | 267 kts | 231° |
| 2026-05-07 17:34 | 60.27869 | 6.11736 | 10961 ft | 274 kts | 243° |
| 2026-05-07 17:34 | 60.27164 | 6.08234 | 10855 ft | 267 kts | 245° |
| 2026-05-07 17:34 | 60.26425 | 6.04790 | 10846 ft | 269 kts | 246° |
| 2026-05-07 17:34 | 60.25721 | 6.01296 | 10838 ft | 269 kts | 246° |
| 2026-05-07 17:35 | 60.24915 | 5.97873 | 10485 ft | 271 kts | 243° |
| 2026-05-07 17:35 | 60.24156 | 5.94328 | 9824 ft | 280 kts | 246° |
| 2026-05-07 17:35 | 60.23433 | 5.90642 | 9145 ft | 286 kts | 247° |
| 2026-05-07 17:35 | 60.22685 | 5.86904 | 8490 ft | 290 kts | 246° |
| 2026-05-07 17:36 | 60.21941 | 5.83160 | 8177 ft | 284 kts | 245° |
| 2026-05-07 17:36 | 60.21125 | 5.79662 | 8080 ft | 267 kts | 242° |
| 2026-05-07 17:36 | 60.20332 | 5.76404 | 8056 ft | 252 kts | 242° |
| 2026-05-07 17:36 | 60.19583 | 5.73301 | 7957 ft | 241 kts | 242° |
| 2026-05-07 17:37 | 60.18735 | 5.70540 | 7848 ft | 225 kts | 221° |
| 2026-05-07 17:37 | 60.17441 | 5.69120 | 7758 ft | 211 kts | 190° |
| 2026-05-07 17:37 | 60.16016 | 5.69373 | 7572 ft | 207 kts | 163° |
| 2026-05-07 17:37 | 60.14669 | 5.70354 | 7301 ft | 205 kts | 161° |
| 2026-05-07 17:38 | 60.13331 | 5.71343 | 7036 ft | 204 kts | 161° |
| 2026-05-07 17:38 | 60.11996 | 5.72315 | 6772 ft | 203 kts | 161° |
| 2026-05-07 17:38 | 60.10647 | 5.73278 | 6347 ft | 210 kts | 161° |
| 2026-05-07 17:38 | 60.09216 | 5.74272 | 5637 ft | 227 kts | 161° |
| 2026-05-07 17:39 | 60.07630 | 5.75096 | 5214 ft | 245 kts | 179° |
| 2026-05-07 17:39 | 60.06019 | 5.74192 | 5909 ft | 246 kts | 205° |
| 2026-05-07 17:39 | 60.04549 | 5.72645 | 6392 ft | 224 kts | 205° |
| 2026-05-07 17:39 | 60.03254 | 5.71325 | 6719 ft | 195 kts | 204° |
| 2026-05-07 17:40 | 60.02078 | 5.70183 | 6569 ft | 203 kts | 203° |
| 2026-05-07 17:40 | 60.00734 | 5.68816 | 5858 ft | 226 kts | 212° |
| 2026-05-07 17:40 | 59.99573 | 5.66712 | 5544 ft | 229 kts | 223° |
| 2026-05-07 17:40 | 59.98444 | 5.64464 | 5177 ft | 232 kts | 222° |
| 2026-05-07 17:41 | 59.97329 | 5.62077 | 4761 ft | 238 kts | 228° |
| 2026-05-07 17:41 | 59.96884 | 5.60958 | 4607 ft | 238 kts | 231° |